createdAt,value
2017-08-09T00:00:52.809Z,19.70
2017-08-09T00:03:21.134Z,19.60
2017-08-09T00:05:49.472Z,19.50
2017-08-09T00:08:17.779Z,19.30
2017-08-09T00:10:46.117Z,19.40
2017-08-09T00:13:14.441Z,19.20
2017-08-09T00:15:42.789Z,18.90
2017-08-09T00:18:11.117Z,19.00
2017-08-09T00:20:39.455Z,19.00
2017-08-09T00:23:07.806Z,19.10
2017-08-09T00:25:36.114Z,19.10
2017-08-09T00:28:04.462Z,19.00
2017-08-09T00:30:32.795Z,18.80
2017-08-09T00:33:01.163Z,18.80
2017-08-09T00:35:29.470Z,18.70
2017-08-09T00:37:57.803Z,18.60
2017-08-09T00:40:26.115Z,18.60
2017-08-09T00:42:54.450Z,18.40
2017-08-09T00:45:22.757Z,18.30
2017-08-09T00:47:51.109Z,18.30
2017-08-09T00:50:19.425Z,18.30
2017-08-09T00:52:47.739Z,18.30
2017-08-09T00:55:16.083Z,18.30
2017-08-09T00:57:44.441Z,18.30
2017-08-09T01:00:12.777Z,18.30
2017-08-09T01:02:41.095Z,18.20
2017-08-09T01:05:09.423Z,18.20
2017-08-09T01:07:37.759Z,18.10
2017-08-09T01:10:06.095Z,18.10
2017-08-09T01:12:34.405Z,18.00
2017-08-09T01:15:02.741Z,18.10
2017-08-09T01:17:31.053Z,18.10
2017-08-09T01:19:59.388Z,18.00
2017-08-09T01:22:27.697Z,17.90
2017-08-09T01:24:56.045Z,18.00
2017-08-09T01:27:24.358Z,17.80
2017-08-09T01:29:52.674Z,17.80
2017-08-09T01:32:21.017Z,17.80
2017-08-09T01:34:49.331Z,17.80
2017-08-09T01:37:17.666Z,17.80
2017-08-09T01:39:45.983Z,17.90
2017-08-09T01:42:14.325Z,17.90
2017-08-09T01:44:42.631Z,17.90
2017-08-09T01:47:10.966Z,17.70
2017-08-09T01:49:39.275Z,17.80
2017-08-09T01:52:07.619Z,17.60
2017-08-09T01:54:35.954Z,17.60
2017-08-09T01:57:04.278Z,17.50
2017-08-09T01:59:32.600Z,17.50
2017-08-09T02:02:00.933Z,17.50
2017-08-09T02:04:29.245Z,17.50
2017-08-09T02:06:57.605Z,17.40
2017-08-09T02:09:25.923Z,17.40
2017-08-09T02:11:54.237Z,17.30
2017-08-09T02:14:22.564Z,17.40
2017-08-09T02:16:50.888Z,17.40
2017-08-09T02:19:19.246Z,17.30
2017-08-09T02:21:47.553Z,17.30
2017-08-09T02:24:16.022Z,17.30
2017-08-09T02:26:44.325Z,17.30
2017-08-09T02:29:12.675Z,17.30
2017-08-09T02:31:40.985Z,17.20
2017-08-09T02:34:09.321Z,17.20
2017-08-09T02:36:37.644Z,17.20
2017-08-09T02:39:05.973Z,17.20
2017-08-09T02:41:34.282Z,17.20
2017-08-09T02:44:02.619Z,17.20
2017-08-09T02:46:30.922Z,17.20
2017-08-09T02:48:59.238Z,17.20
2017-08-09T02:51:27.631Z,17.20
2017-08-09T02:53:55.937Z,17.10
2017-08-09T02:56:24.279Z,17.10
2017-08-09T02:58:52.587Z,17.00
2017-08-09T03:01:20.904Z,16.90
2017-08-09T03:03:49.224Z,16.90
2017-08-09T03:06:17.550Z,16.80
2017-08-09T03:08:45.850Z,16.80
2017-08-09T03:11:14.246Z,16.50
2017-08-09T03:13:42.558Z,16.40
2017-08-09T03:16:10.896Z,16.40
2017-08-09T03:18:39.445Z,16.40
2017-08-09T03:21:07.746Z,16.30
2017-08-09T03:23:36.070Z,16.20
2017-08-09T03:26:04.383Z,16.30
2017-08-09T03:28:32.702Z,16.50
2017-08-09T03:31:01.007Z,16.40
2017-08-09T03:33:29.344Z,16.40
2017-08-09T03:35:57.649Z,16.50
2017-08-09T03:38:25.973Z,16.40
2017-08-09T03:40:54.627Z,16.40
2017-08-09T03:43:23.036Z,16.40
2017-08-09T03:45:51.350Z,16.30
2017-08-09T03:48:19.687Z,16.30
2017-08-09T03:50:47.994Z,16.20
2017-08-09T03:53:16.297Z,16.20
2017-08-09T03:55:44.624Z,16.10
2017-08-09T03:58:12.920Z,16.00
2017-08-09T04:00:41.254Z,16.10
2017-08-09T04:03:09.557Z,15.90
2017-08-09T04:05:37.899Z,15.90
2017-08-09T04:08:06.204Z,15.80
2017-08-09T04:10:34.533Z,15.80
2017-08-09T04:13:02.836Z,15.90
2017-08-09T04:15:31.167Z,15.90
2017-08-09T04:17:59.503Z,15.90
2017-08-09T04:20:27.842Z,15.70
2017-08-09T04:22:56.146Z,15.80
2017-08-09T04:25:24.458Z,15.70
2017-08-09T04:27:52.782Z,15.80
2017-08-09T04:30:21.093Z,15.80
2017-08-09T04:32:49.423Z,15.70
2017-08-09T04:35:17.738Z,15.70
2017-08-09T04:37:46.053Z,15.70
2017-08-09T04:40:14.358Z,15.70
2017-08-09T04:42:42.678Z,15.70
2017-08-09T04:45:10.976Z,15.70
2017-08-09T04:47:39.312Z,15.70
2017-08-09T04:50:07.621Z,15.70
2017-08-09T04:52:35.971Z,15.60
2017-08-09T04:55:04.282Z,15.70
2017-08-09T04:57:32.603Z,15.70
2017-08-09T05:00:00.940Z,15.60
2017-08-09T05:02:29.275Z,15.60
2017-08-09T05:04:57.606Z,15.60
2017-08-09T05:07:25.909Z,15.50
2017-08-09T05:09:54.235Z,15.50
2017-08-09T05:12:22.557Z,15.60
2017-08-09T05:14:50.873Z,15.60
2017-08-09T05:17:19.180Z,15.60
2017-08-09T05:19:47.530Z,15.60
2017-08-09T05:22:15.834Z,15.60
2017-08-09T05:24:44.158Z,15.90
2017-08-09T05:27:12.456Z,16.00
2017-08-09T05:29:40.765Z,16.20
2017-08-09T05:32:09.085Z,16.40
2017-08-09T05:34:37.411Z,16.50
2017-08-09T05:37:05.747Z,16.70
2017-08-09T05:39:34.045Z,17.00
2017-08-09T05:42:02.363Z,17.20
2017-08-09T05:44:30.664Z,17.20
2017-08-09T05:46:58.994Z,17.40
2017-08-09T05:49:27.310Z,17.50
2017-08-09T05:51:55.648Z,17.60
2017-08-09T05:54:23.961Z,17.80
2017-08-09T05:56:52.290Z,18.10
2017-08-09T05:59:20.603Z,18.20
2017-08-09T06:01:48.916Z,18.30
2017-08-09T06:04:17.243Z,18.40
2017-08-09T06:06:45.554Z,18.60
2017-08-09T06:09:13.891Z,18.90
2017-08-09T06:11:42.197Z,19.00
2017-08-09T06:14:10.520Z,19.20
2017-08-09T06:16:38.836Z,19.30
2017-08-09T06:19:07.155Z,19.40
2017-08-09T06:21:35.456Z,19.30
2017-08-09T06:24:03.788Z,19.30
2017-08-09T06:26:32.113Z,19.60
2017-08-09T06:29:00.427Z,19.90
2017-08-09T06:31:28.742Z,20.00
2017-08-09T06:33:57.049Z,20.10
2017-08-09T06:36:25.387Z,20.00
2017-08-09T06:38:53.704Z,20.10
2017-08-09T06:41:22.038Z,19.90
2017-08-09T06:43:50.341Z,20.20
2017-08-09T06:46:18.667Z,20.40
2017-08-09T06:48:46.964Z,20.60
2017-08-09T06:51:15.430Z,20.50
2017-08-09T06:53:43.732Z,20.80
2017-08-09T06:56:12.054Z,20.90
2017-08-09T06:58:40.618Z,20.80
2017-08-09T07:01:09.075Z,20.80
2017-08-09T07:03:37.401Z,20.90
2017-08-09T07:06:05.715Z,21.20
2017-08-09T07:08:34.040Z,21.40
2017-08-09T07:11:02.339Z,21.50
2017-08-09T07:13:30.660Z,21.70
2017-08-09T07:15:58.970Z,21.80
2017-08-09T07:18:27.303Z,22.10
2017-08-09T07:20:55.806Z,21.90
2017-08-09T07:23:24.137Z,22.10
2017-08-09T07:25:52.438Z,22.50
2017-08-09T07:28:20.767Z,22.20
2017-08-09T07:30:49.074Z,22.40
2017-08-09T07:33:17.404Z,22.50
2017-08-09T07:35:45.724Z,22.70
2017-08-09T07:38:14.038Z,22.90
2017-08-09T07:40:42.374Z,23.10
2017-08-09T07:43:10.694Z,23.40
2017-08-09T07:45:39.016Z,23.40
2017-08-09T07:48:07.326Z,23.50
2017-08-09T07:50:35.668Z,23.70
2017-08-09T07:53:04.005Z,23.60
2017-08-09T07:55:32.335Z,23.90
2017-08-09T07:58:00.638Z,24.10
2017-08-09T08:00:28.978Z,24.10
2017-08-09T08:02:57.289Z,24.50
2017-08-09T08:05:25.619Z,24.40
2017-08-09T08:07:53.931Z,24.40
2017-08-09T08:10:22.239Z,24.10
2017-08-09T08:12:50.548Z,24.00
2017-08-09T08:15:18.865Z,24.20
2017-08-09T08:17:47.211Z,24.60
2017-08-09T08:20:15.524Z,24.60
2017-08-09T08:22:43.853Z,24.40
2017-08-09T08:25:12.172Z,24.00
2017-08-09T08:27:40.504Z,24.10
2017-08-09T08:30:08.805Z,24.60
2017-08-09T08:32:37.130Z,24.50
2017-08-09T08:35:05.433Z,25.00
2017-08-09T08:37:33.758Z,25.10
2017-08-09T08:40:02.058Z,25.00
2017-08-09T08:42:30.420Z,25.20
2017-08-09T08:44:58.730Z,25.10
2017-08-09T08:47:27.957Z,25.10
2017-08-09T08:49:56.330Z,25.50
2017-08-09T08:52:24.637Z,25.60
2017-08-09T08:54:52.965Z,25.50
2017-08-09T08:57:21.276Z,25.30
2017-08-09T08:59:49.617Z,25.30
2017-08-09T09:02:17.926Z,25.30
2017-08-09T09:04:46.250Z,25.30
2017-08-09T09:07:14.549Z,25.40
2017-08-09T09:09:42.870Z,25.70
2017-08-09T09:12:11.181Z,25.90
2017-08-09T09:14:39.504Z,25.90
2017-08-09T09:17:07.807Z,25.80
2017-08-09T09:19:36.110Z,25.50
2017-08-09T09:22:04.434Z,24.90
2017-08-09T09:24:32.753Z,25.30
2017-08-09T09:27:01.093Z,25.40
2017-08-09T09:29:29.400Z,25.80
2017-08-09T09:31:57.728Z,25.70
2017-08-09T09:34:26.033Z,25.20
2017-08-09T09:36:54.351Z,25.60
2017-08-09T09:39:22.657Z,25.80
2017-08-09T09:41:50.992Z,25.70
2017-08-09T09:44:19.302Z,25.30
2017-08-09T09:46:47.625Z,25.30
2017-08-09T09:49:15.941Z,24.80
2017-08-09T09:51:44.266Z,24.80
2017-08-09T09:54:12.568Z,24.80
2017-08-09T09:56:40.925Z,25.30
2017-08-09T09:59:09.228Z,25.60
2017-08-09T10:01:37.558Z,25.80
2017-08-09T10:04:05.890Z,25.90
2017-08-09T10:06:34.196Z,24.10
2017-08-09T10:09:02.538Z,24.80
2017-08-09T10:11:30.866Z,25.20
2017-08-09T10:13:59.196Z,25.00
2017-08-09T10:16:27.499Z,25.60
2017-08-09T10:18:55.821Z,25.90
2017-08-09T10:21:24.132Z,26.20
2017-08-09T10:23:52.444Z,26.00
2017-08-09T10:26:20.763Z,26.20
2017-08-09T10:28:49.086Z,25.90
2017-08-09T10:31:18.304Z,26.10
2017-08-09T10:33:46.639Z,26.30
2017-08-09T10:36:14.952Z,26.70
2017-08-09T10:38:43.294Z,26.60
2017-08-09T10:41:11.609Z,26.60
2017-08-09T10:43:39.924Z,26.90
2017-08-09T10:46:08.256Z,27.20
2017-08-09T10:48:36.566Z,27.00
2017-08-09T10:51:04.890Z,27.50
2017-08-09T10:53:33.192Z,27.40
2017-08-09T10:56:01.516Z,27.50
2017-08-09T10:58:29.828Z,27.10
2017-08-09T11:00:58.137Z,26.30
2017-08-09T11:03:26.437Z,26.60
2017-08-09T11:05:54.765Z,26.80
2017-08-09T11:08:23.129Z,27.30
2017-08-09T11:10:51.464Z,27.80
2017-08-09T11:13:19.769Z,27.70
2017-08-09T11:15:48.072Z,27.40
2017-08-09T11:18:16.390Z,27.70
2017-08-09T11:20:44.767Z,27.30
2017-08-09T11:23:13.104Z,27.10
2017-08-09T11:25:41.409Z,26.90
2017-08-09T11:28:09.754Z,27.10
2017-08-09T11:30:38.082Z,27.20
2017-08-09T11:33:06.399Z,27.00
2017-08-09T11:35:34.690Z,26.60
2017-08-09T11:38:03.017Z,26.70
2017-08-09T11:40:31.320Z,26.80
2017-08-09T11:42:59.654Z,25.50
2017-08-09T11:45:28.827Z,24.80
2017-08-09T11:47:57.161Z,24.10
2017-08-09T11:50:25.461Z,24.50
2017-08-09T11:52:53.770Z,24.60
2017-08-09T11:55:22.094Z,25.10
2017-08-09T11:57:50.405Z,25.90
2017-08-09T12:03:18.354Z,26.60
2017-08-09T12:05:46.686Z,27.00
2017-08-09T12:08:14.985Z,27.20
2017-08-09T12:10:43.310Z,27.60
2017-08-09T12:13:11.612Z,27.40
2017-08-09T12:15:39.945Z,27.30
2017-08-09T12:18:08.239Z,27.10
2017-08-09T12:20:36.555Z,27.00
2017-08-09T12:23:04.854Z,27.30
2017-08-09T12:25:33.178Z,27.70
2017-08-09T12:28:01.481Z,27.70
2017-08-09T12:30:29.815Z,27.60
2017-08-09T12:32:58.123Z,27.50
2017-08-09T12:35:26.420Z,27.50
2017-08-09T12:37:54.749Z,27.60
2017-08-09T12:40:23.055Z,27.90
2017-08-09T12:42:51.381Z,27.40
2017-08-09T12:45:19.714Z,27.70
2017-08-09T12:47:48.045Z,28.00
2017-08-09T12:50:16.350Z,28.20
2017-08-09T12:52:44.677Z,28.00
2017-08-09T12:55:12.980Z,27.80
2017-08-09T12:57:41.302Z,26.50
2017-08-09T13:00:09.606Z,25.20
2017-08-09T13:02:37.931Z,25.00
2017-08-09T13:05:06.230Z,25.70
2017-08-09T13:07:34.567Z,26.50
2017-08-09T13:10:02.889Z,26.90
2017-08-09T13:12:31.189Z,27.30
2017-08-09T13:14:59.505Z,27.50
2017-08-09T13:17:27.891Z,27.40
2017-08-09T13:19:56.216Z,27.30
2017-08-09T13:22:24.518Z,27.40
2017-08-09T13:24:52.838Z,27.40
2017-08-09T13:27:21.146Z,27.40
2017-08-09T13:29:49.469Z,27.30
2017-08-09T13:32:17.762Z,27.30
2017-08-09T13:34:46.093Z,27.00
2017-08-09T13:37:14.393Z,27.10
2017-08-09T13:39:42.693Z,27.20
2017-08-09T13:42:11.024Z,27.10
2017-08-09T13:44:39.325Z,27.10
2017-08-09T13:47:07.646Z,27.00
2017-08-09T13:49:35.937Z,26.90
2017-08-09T13:52:04.255Z,26.90
2017-08-09T13:54:32.548Z,27.10
2017-08-09T13:57:00.882Z,27.30
2017-08-09T13:59:29.186Z,27.50
2017-08-09T14:01:57.501Z,27.50
2017-08-09T14:04:25.909Z,27.50
2017-08-09T14:06:54.237Z,27.40
2017-08-09T14:09:22.541Z,27.50
2017-08-09T14:11:50.851Z,25.70
2017-08-09T14:14:19.164Z,25.40
2017-08-09T14:16:47.465Z,25.80
2017-08-09T14:19:15.778Z,26.40
2017-08-09T14:21:44.083Z,26.50
2017-08-09T14:24:12.413Z,26.60
2017-08-09T14:26:40.721Z,26.80
2017-08-09T14:29:09.041Z,26.80
2017-08-09T14:31:37.337Z,26.30
2017-08-09T14:34:05.669Z,26.60
2017-08-09T14:36:33.967Z,26.70
2017-08-09T14:39:02.290Z,26.70
2017-08-09T14:41:30.593Z,26.70
2017-08-09T14:43:58.944Z,26.90
2017-08-09T14:46:28.171Z,27.00
2017-08-09T14:48:56.468Z,26.90
2017-08-09T14:51:24.825Z,26.90
2017-08-09T14:53:53.135Z,26.80
2017-08-09T14:56:21.461Z,26.70
2017-08-09T14:58:49.778Z,26.70
2017-08-09T15:01:18.104Z,26.50
2017-08-09T15:03:46.421Z,25.60
2017-08-09T15:06:14.741Z,25.80
2017-08-09T15:08:43.047Z,25.90
2017-08-09T15:11:11.369Z,25.90
2017-08-09T15:13:39.683Z,26.00
2017-08-09T15:16:08.036Z,25.30
2017-08-09T15:18:36.333Z,25.90
2017-08-09T15:21:04.648Z,25.80
2017-08-09T15:23:32.966Z,25.90
2017-08-09T15:26:01.269Z,25.90
2017-08-09T15:28:29.601Z,26.00
2017-08-09T15:30:57.906Z,26.00
2017-08-09T15:33:26.243Z,26.20
2017-08-09T15:35:54.830Z,26.10
2017-08-09T15:38:23.175Z,26.00
2017-08-09T15:40:51.473Z,26.00
2017-08-09T15:43:19.817Z,26.20
2017-08-09T15:45:48.117Z,26.30
2017-08-09T15:48:16.451Z,26.30
2017-08-09T15:50:44.760Z,26.10
2017-08-09T15:53:13.076Z,26.00
2017-08-09T15:55:41.405Z,25.80
2017-08-09T15:58:09.700Z,25.60
2017-08-09T16:00:38.040Z,25.80
2017-08-09T16:03:06.394Z,26.00
2017-08-09T16:05:34.755Z,26.10
2017-08-09T16:08:03.107Z,26.00
2017-08-09T16:10:31.442Z,25.90
2017-08-09T16:12:59.751Z,25.90
2017-08-09T16:15:28.084Z,25.90
2017-08-09T16:17:56.386Z,25.70
2017-08-09T16:20:24.700Z,25.50
2017-08-09T16:22:53.016Z,25.50
2017-08-09T16:25:21.362Z,25.50
2017-08-09T16:27:49.670Z,25.30
2017-08-09T16:30:17.986Z,25.50
2017-08-09T16:32:46.306Z,25.60
2017-08-09T16:35:14.606Z,25.80
2017-08-09T16:37:42.933Z,25.90
2017-08-09T16:40:11.237Z,25.90
2017-08-09T16:42:39.557Z,25.80
2017-08-09T16:45:07.882Z,25.80
2017-08-09T16:47:36.214Z,25.70
2017-08-09T16:50:04.526Z,25.70
2017-08-09T16:52:32.851Z,25.70
2017-08-09T16:55:01.346Z,25.60
2017-08-09T16:57:29.673Z,25.60
2017-08-09T16:59:57.986Z,25.60
2017-08-09T17:02:26.413Z,25.60
2017-08-09T17:04:54.723Z,25.50
2017-08-09T17:07:23.034Z,25.50
2017-08-09T17:09:51.355Z,25.40
2017-08-09T17:12:19.657Z,25.30
2017-08-09T17:14:47.986Z,25.40
2017-08-09T17:17:16.289Z,25.40
2017-08-09T17:19:44.614Z,25.10
2017-08-09T17:22:12.927Z,25.10
2017-08-09T17:24:41.261Z,25.10
2017-08-09T17:27:09.566Z,25.00
2017-08-09T17:29:37.885Z,25.00
2017-08-09T17:32:06.194Z,25.00
2017-08-09T17:34:34.529Z,25.00
2017-08-09T17:37:02.833Z,24.90
2017-08-09T17:39:31.171Z,24.80
2017-08-09T17:41:59.476Z,24.80
2017-08-09T17:44:27.781Z,24.80
2017-08-09T17:46:56.141Z,24.60
2017-08-09T17:49:24.450Z,24.60
2017-08-09T17:51:52.778Z,24.40
2017-08-09T17:54:21.083Z,24.50
2017-08-09T17:56:49.410Z,24.60
2017-08-09T17:59:17.723Z,24.50
2017-08-09T18:01:46.050Z,24.40
2017-08-09T18:04:14.347Z,24.30
2017-08-09T18:06:42.671Z,24.30
2017-08-09T18:09:10.972Z,24.30
2017-08-09T18:11:39.283Z,24.40
2017-08-09T18:14:07.618Z,24.30
2017-08-09T18:16:35.931Z,24.30
2017-08-09T18:19:04.260Z,24.20
2017-08-09T18:21:32.567Z,24.10
2017-08-09T18:24:00.893Z,24.10
2017-08-09T18:26:29.222Z,24.20
2017-08-09T18:28:57.539Z,24.20
2017-08-09T18:31:25.846Z,23.90
2017-08-09T18:33:54.182Z,24.00
2017-08-09T18:36:22.468Z,23.90
2017-08-09T18:38:50.796Z,23.90
2017-08-09T18:41:19.107Z,23.90
2017-08-09T18:43:47.432Z,23.90
2017-08-09T18:46:15.747Z,24.00
2017-08-09T18:48:44.982Z,24.00
2017-08-09T18:51:13.371Z,23.90
2017-08-09T18:53:41.668Z,23.80
2017-08-09T18:56:10.001Z,23.70
2017-08-09T18:58:38.303Z,23.50
2017-08-09T19:01:06.634Z,23.40
2017-08-09T19:03:34.939Z,23.20
2017-08-09T19:06:03.266Z,23.10
2017-08-09T19:08:31.587Z,23.10
2017-08-09T19:10:59.926Z,23.20
2017-08-09T19:13:28.230Z,23.10
2017-08-09T19:15:56.548Z,22.90
2017-08-09T19:18:24.851Z,22.90
2017-08-09T19:20:53.167Z,22.90
2017-08-09T19:23:21.506Z,22.90
2017-08-09T19:25:49.820Z,22.90
2017-08-09T19:28:18.148Z,22.90
2017-08-09T19:30:46.453Z,22.90
2017-08-09T19:33:14.784Z,22.80
2017-08-09T19:35:43.087Z,22.50
2017-08-09T19:38:11.400Z,22.40
2017-08-09T19:40:39.723Z,22.40
2017-08-09T19:43:08.046Z,22.30
2017-08-09T19:45:36.355Z,22.40
2017-08-09T19:48:04.649Z,22.30
2017-08-09T19:50:32.970Z,22.40
2017-08-09T19:53:01.272Z,22.30
2017-08-09T19:55:29.638Z,22.50
2017-08-09T19:57:57.934Z,22.50
2017-08-09T20:00:26.256Z,22.50
2017-08-09T20:02:54.573Z,22.40
2017-08-09T20:05:22.955Z,22.40
2017-08-09T20:07:51.266Z,22.40
2017-08-09T20:10:19.601Z,22.20
2017-08-09T20:12:47.896Z,22.00
2017-08-09T20:15:16.236Z,21.80
2017-08-09T20:17:44.550Z,21.80
2017-08-09T20:20:12.886Z,21.90
2017-08-09T20:22:41.192Z,21.70
2017-08-09T20:25:09.506Z,21.50
2017-08-09T20:27:37.911Z,21.50
2017-08-09T20:30:06.227Z,21.40
2017-08-09T20:32:34.798Z,21.40
2017-08-09T20:35:03.096Z,21.50
2017-08-09T20:37:31.445Z,21.50
2017-08-09T20:39:59.823Z,21.40
2017-08-09T20:42:28.164Z,21.40
2017-08-09T20:44:56.472Z,21.30
2017-08-09T20:47:24.810Z,21.30
2017-08-09T20:49:53.113Z,21.10
2017-08-09T20:52:21.445Z,21.10
2017-08-09T20:54:49.750Z,21.10
2017-08-09T20:57:18.139Z,20.90
2017-08-09T20:59:46.465Z,21.00
2017-08-09T21:02:15.826Z,20.80
2017-08-09T21:04:44.152Z,20.80
2017-08-09T21:07:12.455Z,20.80
2017-08-09T21:09:40.777Z,20.80
2017-08-09T21:12:09.104Z,20.80
2017-08-09T21:14:37.430Z,20.80
2017-08-09T21:17:05.742Z,20.80
2017-08-09T21:19:34.079Z,20.90
2017-08-09T21:22:02.381Z,20.80
2017-08-09T21:24:30.680Z,20.80
2017-08-09T21:26:59.010Z,20.70
2017-08-09T21:29:27.312Z,20.80
2017-08-09T21:31:55.685Z,20.70
2017-08-09T21:34:23.988Z,20.80
2017-08-09T21:36:52.302Z,20.50
2017-08-09T21:39:20.620Z,20.30
2017-08-09T21:41:48.961Z,20.30
2017-08-09T21:44:17.274Z,20.50
2017-08-09T21:46:45.622Z,20.50
2017-08-09T21:49:13.936Z,20.60
2017-08-09T21:51:42.240Z,20.80
2017-08-09T21:54:10.578Z,20.80
2017-08-09T21:56:38.881Z,20.80
2017-08-09T21:59:07.215Z,20.80
2017-08-09T22:01:35.527Z,20.70
2017-08-09T22:04:03.884Z,20.70
2017-08-09T22:06:32.218Z,20.60
2017-08-09T22:09:00.560Z,20.50
2017-08-09T22:11:28.900Z,20.50
2017-08-09T22:13:57.232Z,20.50
2017-08-09T22:16:25.546Z,20.40
2017-08-09T22:18:53.844Z,20.40
2017-08-09T22:21:22.168Z,20.20
2017-08-09T22:23:50.485Z,20.10
2017-08-09T22:26:18.842Z,19.80
2017-08-09T22:28:47.160Z,19.70
2017-08-09T22:31:15.481Z,19.50
2017-08-09T22:33:43.796Z,19.40
2017-08-09T22:36:12.141Z,19.30
2017-08-09T22:38:40.999Z,19.20
2017-08-09T22:41:09.342Z,19.20
2017-08-09T22:43:37.646Z,19.00
2017-08-09T22:46:05.992Z,18.80
2017-08-09T22:48:34.325Z,18.90
2017-08-09T22:51:02.637Z,19.10
2017-08-09T22:53:30.960Z,19.20
2017-08-09T22:55:59.264Z,19.20
2017-08-09T22:58:27.602Z,19.10
2017-08-09T23:00:55.909Z,19.00
2017-08-09T23:03:24.262Z,19.00
2017-08-09T23:05:52.569Z,19.00
2017-08-09T23:08:20.900Z,19.00
2017-08-09T23:10:49.205Z,18.80
2017-08-09T23:13:17.541Z,18.80
2017-08-09T23:15:45.862Z,18.80
2017-08-09T23:18:14.172Z,18.80
2017-08-09T23:20:42.509Z,18.80
2017-08-09T23:23:10.817Z,18.70
2017-08-09T23:25:39.175Z,18.70
2017-08-09T23:28:07.491Z,18.70
2017-08-09T23:30:35.820Z,18.70
2017-08-09T23:33:04.142Z,18.60
2017-08-09T23:35:32.475Z,18.40
2017-08-09T23:38:00.786Z,18.30
2017-08-09T23:40:29.099Z,18.30
2017-08-09T23:42:57.410Z,18.30
2017-08-09T23:45:25.752Z,18.30
2017-08-09T23:47:54.070Z,18.00
2017-08-09T23:50:22.405Z,18.20
2017-08-09T23:52:50.709Z,18.20
2017-08-09T23:55:19.037Z,18.00
2017-08-09T23:57:47.369Z,18.00
